createdAt,value
2018-05-23T00:01:09.491Z,71.21
2018-05-23T00:03:36.965Z,71.08
2018-05-23T00:06:04.448Z,71.00
2018-05-23T00:08:31.858Z,71.50
2018-05-23T00:11:00.404Z,71.80
2018-05-23T00:13:28.517Z,71.99
2018-05-23T00:15:55.991Z,71.98
2018-05-23T00:18:23.427Z,71.80
2018-05-23T00:20:50.884Z,71.59
2018-05-23T00:23:18.324Z,71.43
2018-05-23T00:25:45.797Z,71.73
2018-05-23T00:28:13.232Z,72.44
2018-05-23T00:30:41.547Z,72.74
2018-05-23T00:33:08.990Z,72.33
2018-05-23T00:35:36.412Z,72.50
2018-05-23T00:38:03.863Z,72.86
2018-05-23T00:40:31.316Z,72.99
2018-05-23T00:42:58.715Z,72.74
2018-05-23T00:45:26.189Z,72.67
2018-05-23T00:47:53.636Z,72.81
2018-05-23T00:50:22.426Z,72.76
2018-05-23T00:52:49.855Z,72.56
2018-05-23T00:55:28.927Z,71.98
2018-05-23T00:57:57.185Z,72.00
2018-05-23T01:00:24.668Z,72.49
2018-05-23T01:02:52.080Z,72.19
2018-05-23T01:05:19.572Z,71.30
2018-05-23T01:07:47.033Z,71.91
2018-05-23T01:10:14.463Z,71.34
2018-05-23T01:12:41.985Z,71.45
2018-05-23T01:15:09.451Z,71.46
2018-05-23T01:17:36.858Z,71.86
2018-05-23T01:20:04.305Z,72.60
2018-05-23T01:22:31.771Z,72.69
2018-05-23T01:24:59.809Z,72.15
2018-05-23T01:27:27.242Z,72.70
2018-05-23T01:29:54.696Z,72.67
2018-05-23T01:32:22.160Z,72.97
2018-05-23T01:34:49.592Z,73.77
2018-05-23T01:37:17.713Z,72.89
2018-05-23T01:39:45.135Z,72.59
2018-05-23T01:42:12.623Z,72.27
2018-05-23T01:44:40.097Z,71.94
2018-05-23T01:47:07.676Z,72.23
2018-05-23T01:49:35.117Z,71.81
2018-05-23T01:52:02.543Z,71.59
2018-05-23T01:54:30.024Z,71.28
2018-05-23T01:56:57.422Z,71.40
2018-05-23T01:59:24.903Z,71.75
2018-05-23T02:01:52.356Z,71.50
2018-05-23T02:04:19.874Z,71.71
2018-05-23T02:06:47.287Z,71.71
2018-05-23T02:09:14.757Z,71.69
2018-05-23T02:11:42.155Z,72.35
2018-05-23T02:14:10.539Z,73.25
2018-05-23T02:16:38.672Z,73.72
2018-05-23T02:19:06.092Z,73.73
2018-05-23T02:21:33.568Z,73.83
2018-05-23T02:24:04.612Z,73.42
2018-05-23T02:26:32.051Z,73.49
2018-05-23T02:28:59.538Z,73.84
2018-05-23T02:31:27.014Z,73.89
2018-05-23T02:33:54.496Z,73.90
2018-05-23T02:36:21.962Z,74.20
2018-05-23T02:38:49.430Z,74.50
2018-05-23T02:41:16.840Z,74.68
2018-05-23T02:43:45.368Z,74.73
2018-05-23T02:46:19.598Z,74.83
2018-05-23T02:48:48.151Z,74.65
2018-05-23T02:51:15.543Z,74.75
2018-05-23T02:53:43.033Z,74.59
2018-05-23T02:56:10.434Z,74.72
2018-05-23T02:58:37.895Z,74.77
2018-05-23T03:01:05.299Z,74.58
2018-05-23T03:03:36.513Z,74.56
2018-05-23T03:06:05.201Z,74.39
2018-05-23T03:08:32.635Z,74.33
2018-05-23T03:11:00.031Z,74.38
2018-05-23T03:13:27.564Z,74.44
2018-05-23T03:15:55.020Z,74.33
2018-05-23T03:18:22.597Z,74.21
2018-05-23T03:20:50.005Z,74.22
2018-05-23T03:23:17.443Z,74.12
2018-05-23T03:25:44.872Z,74.12
2018-05-23T03:28:13.020Z,73.96
2018-05-23T03:30:40.494Z,73.71
2018-05-23T03:33:09.722Z,73.71
2018-05-23T03:35:37.747Z,73.73
2018-05-23T03:38:05.182Z,73.75
2018-05-23T03:40:32.575Z,73.42
2018-05-23T03:43:00.026Z,73.39
2018-05-23T03:45:27.451Z,73.40
2018-05-23T03:47:54.884Z,73.21
2018-05-23T03:50:22.377Z,73.28
2018-05-23T03:52:49.789Z,73.49
2018-05-23T03:55:18.070Z,73.82
2018-05-23T03:57:46.440Z,73.61
2018-05-23T04:00:25.562Z,73.77
2018-05-23T04:03:05.566Z,73.75
2018-05-23T04:05:44.708Z,73.34
2018-05-23T04:08:12.771Z,73.27
2018-05-23T04:10:40.238Z,73.56
2018-05-23T04:13:07.661Z,73.58
2018-05-23T04:15:35.110Z,73.77
2018-05-23T04:18:02.544Z,73.88
2018-05-23T04:20:30.309Z,73.73
2018-05-23T04:22:57.745Z,73.95
2018-05-23T04:25:25.238Z,74.08
2018-05-23T04:27:53.272Z,74.18
2018-05-23T04:30:20.666Z,74.12
2018-05-23T04:32:48.120Z,74.14
2018-05-23T04:35:15.609Z,73.94
2018-05-23T04:37:43.089Z,73.98
2018-05-23T04:40:10.568Z,73.84
2018-05-23T04:42:38.038Z,73.62
2018-05-23T04:45:05.555Z,73.78
2018-05-23T04:47:33.207Z,73.76
2018-05-23T04:50:00.681Z,73.44
2018-05-23T04:52:28.134Z,73.42
2018-05-23T04:54:55.552Z,73.19
2018-05-23T04:57:22.989Z,73.54
2018-05-23T04:59:52.195Z,73.62
2018-05-23T05:02:19.601Z,73.45
2018-05-23T05:04:47.056Z,73.80
2018-05-23T05:07:14.463Z,73.24
2018-05-23T05:09:41.909Z,72.93
2018-05-23T05:12:09.880Z,72.89
2018-05-23T05:14:38.627Z,72.45
2018-05-23T05:17:06.064Z,72.93
2018-05-23T05:19:33.556Z,73.08
2018-05-23T05:22:01.015Z,73.08
2018-05-23T05:24:28.418Z,73.10
2018-05-23T05:26:55.868Z,73.10
2018-05-23T05:29:23.310Z,72.78
2018-05-23T05:31:53.739Z,72.71
2018-05-23T05:34:21.097Z,72.41
2018-05-23T05:36:48.619Z,71.93
2018-05-23T05:39:16.819Z,71.79
2018-05-23T05:41:44.495Z,71.70
2018-05-23T05:44:12.053Z,71.51
2018-05-23T05:46:39.520Z,71.53
2018-05-23T05:49:06.952Z,71.46
2018-05-23T05:51:34.444Z,71.16
2018-05-23T05:54:01.989Z,70.86
2018-05-23T05:56:29.439Z,70.59
2018-05-23T05:58:59.660Z,70.59
2018-05-23T06:01:27.291Z,70.11
2018-05-23T06:03:56.162Z,70.54
2018-05-23T06:06:23.608Z,70.18
2018-05-23T06:08:51.043Z,69.92
2018-05-23T06:11:18.447Z,69.89
2018-05-23T06:13:45.964Z,69.72
2018-05-23T06:16:14.139Z,69.57
2018-05-23T06:18:41.617Z,69.43
2018-05-23T06:21:09.104Z,69.28
2018-05-23T06:23:36.571Z,68.94
2018-05-23T06:26:04.052Z,68.63
2018-05-23T06:28:31.557Z,68.49
2018-05-23T06:30:58.971Z,68.92
2018-05-23T06:33:26.462Z,68.58
2018-05-23T06:36:02.852Z,68.45
2018-05-23T06:38:30.282Z,68.07
2018-05-23T06:41:06.365Z,68.04
2018-05-23T06:43:33.831Z,67.50
2018-05-23T06:46:01.344Z,67.24
2018-05-23T06:48:28.885Z,67.34
2018-05-23T06:50:57.462Z,67.01
2018-05-23T06:53:24.890Z,66.87
2018-05-23T06:55:52.376Z,66.58
2018-05-23T06:58:19.807Z,66.23
2018-05-23T07:00:47.411Z,66.13
2018-05-23T07:03:15.002Z,66.37
2018-05-23T07:05:43.309Z,65.79
2018-05-23T07:08:11.743Z,65.54
2018-05-23T07:10:39.197Z,65.07
2018-05-23T07:13:06.627Z,64.70
2018-05-23T07:15:34.119Z,64.30
2018-05-23T07:18:01.680Z,63.99
2018-05-23T07:20:28.998Z,63.46
2018-05-23T07:22:56.513Z,63.10
2018-05-23T07:25:23.933Z,62.47
2018-05-23T07:27:51.405Z,62.03
2018-05-23T07:30:19.597Z,61.51
2018-05-23T07:32:47.094Z,61.08
2018-05-23T07:35:14.522Z,60.82
2018-05-23T07:37:42.639Z,61.40
2018-05-23T07:40:10.024Z,61.90
2018-05-23T07:42:37.484Z,61.59
2018-05-23T07:45:04.983Z,62.10
2018-05-23T07:47:32.466Z,62.01
2018-05-23T07:49:59.855Z,61.90
2018-05-23T07:52:27.295Z,61.41
2018-05-23T07:54:55.748Z,61.93
2018-05-23T07:57:24.128Z,62.13
2018-05-23T07:59:51.585Z,61.97
2018-05-23T08:02:22.921Z,60.71
2018-05-23T08:04:50.395Z,60.31
2018-05-23T08:07:18.450Z,60.36
2018-05-23T08:09:45.926Z,60.32
2018-05-23T08:12:13.965Z,59.89
2018-05-23T08:14:41.424Z,59.69
2018-05-23T08:17:09.732Z,59.55
2018-05-23T08:19:37.139Z,59.95
2018-05-23T08:22:04.616Z,60.58
2018-05-23T08:24:34.214Z,59.93
2018-05-23T08:27:01.639Z,59.34
2018-05-23T08:29:32.002Z,59.22
2018-05-23T08:32:00.008Z,59.40
2018-05-23T08:34:27.398Z,59.48
2018-05-23T08:36:55.420Z,59.50
2018-05-23T08:39:22.882Z,58.99
2018-05-23T08:41:50.353Z,58.38
2018-05-23T08:44:19.230Z,58.94
2018-05-23T08:46:47.378Z,59.30
2018-05-23T08:49:15.651Z,59.70
2018-05-23T08:51:43.100Z,60.21
2018-05-23T08:54:20.458Z,60.12
2018-05-23T08:56:47.960Z,60.41
2018-05-23T08:59:15.451Z,60.70
2018-05-23T09:01:43.021Z,60.52
2018-05-23T09:04:10.521Z,60.80
2018-05-23T09:06:37.938Z,60.56
2018-05-23T09:09:06.233Z,61.15
2018-05-23T09:11:33.776Z,61.47
2018-05-23T09:14:01.282Z,61.61
2018-05-23T09:16:28.718Z,62.20
2018-05-23T09:18:56.157Z,62.60
2018-05-23T09:21:23.695Z,62.10
2018-05-23T09:23:51.947Z,61.82
2018-05-23T09:26:19.412Z,61.28
2018-05-23T09:28:46.810Z,60.50
2018-05-23T09:31:14.279Z,60.32
2018-05-23T09:33:41.811Z,60.12
2018-05-23T09:36:09.253Z,60.83
2018-05-23T09:38:36.743Z,61.62
2018-05-23T09:41:04.177Z,61.71
2018-05-23T09:43:31.574Z,62.15
2018-05-23T09:45:59.027Z,62.89
2018-05-23T09:48:29.909Z,61.84
2018-05-23T09:50:57.346Z,61.49
2018-05-23T09:53:25.559Z,62.16
2018-05-23T09:55:53.007Z,62.59
2018-05-23T09:58:20.487Z,64.03
2018-05-23T10:00:47.976Z,62.93
2018-05-23T10:03:16.678Z,61.04
2018-05-23T10:05:44.141Z,62.07
2018-05-23T10:08:11.573Z,61.37
2018-05-23T10:10:39.013Z,61.56
2018-05-23T10:13:07.063Z,61.68
2018-05-23T10:15:34.574Z,62.18
2018-05-23T10:18:02.040Z,62.10
2018-05-23T10:20:29.501Z,62.04
2018-05-23T10:22:56.940Z,62.32
2018-05-23T10:25:24.378Z,62.91
2018-05-23T10:27:51.948Z,61.32
2018-05-23T10:30:19.374Z,62.41
2018-05-23T10:32:46.840Z,62.07
2018-05-23T10:35:14.361Z,62.51
2018-05-23T10:37:41.794Z,62.51
2018-05-23T10:40:09.353Z,62.08
2018-05-23T10:42:36.793Z,61.54
2018-05-23T10:45:04.299Z,61.41
2018-05-23T10:47:33.530Z,62.41
2018-05-23T10:50:00.945Z,62.36
2018-05-23T10:52:28.426Z,61.58
2018-05-23T10:54:55.946Z,61.64
2018-05-23T10:57:25.317Z,61.08
2018-05-23T10:59:52.792Z,60.67
2018-05-23T11:02:20.241Z,61.01
2018-05-23T11:04:47.821Z,60.79
2018-05-23T11:07:16.150Z,61.28
2018-05-23T11:09:43.635Z,61.79
2018-05-23T11:12:11.089Z,62.45
2018-05-23T11:14:38.552Z,63.04
2018-05-23T11:17:06.126Z,63.17
2018-05-23T11:19:34.582Z,63.36
2018-05-23T11:22:02.946Z,63.65
2018-05-23T11:24:30.348Z,63.99
2018-05-23T11:26:57.794Z,64.74
2018-05-23T11:29:27.199Z,64.82
2018-05-23T11:31:54.724Z,65.80
2018-05-23T11:34:22.168Z,65.99
2018-05-23T11:36:49.670Z,66.39
2018-05-23T11:39:17.363Z,65.78
2018-05-23T11:41:45.029Z,65.16
2018-05-23T11:44:12.473Z,64.87
2018-05-23T11:46:40.092Z,64.57
2018-05-23T11:49:07.489Z,64.13
2018-05-23T11:51:35.029Z,63.87
2018-05-23T11:54:03.462Z,63.91
2018-05-23T11:56:30.960Z,63.48
2018-05-23T11:58:58.411Z,62.93
2018-05-23T12:01:25.920Z,62.88
2018-05-23T12:03:56.025Z,61.64
2018-05-23T12:06:23.550Z,61.47
2018-05-23T12:08:51.840Z,61.33
2018-05-23T12:11:20.584Z,61.60
2018-05-23T12:13:48.016Z,61.17
2018-05-23T12:16:15.490Z,61.37
2018-05-23T12:18:43.063Z,61.60
2018-05-23T12:21:10.616Z,61.10
2018-05-23T12:23:38.076Z,60.18
2018-05-23T12:26:06.714Z,61.39
2018-05-23T12:28:34.157Z,60.14
2018-05-23T12:31:01.621Z,59.92
2018-05-23T12:33:29.070Z,59.84
2018-05-23T12:35:56.512Z,60.75
2018-05-23T12:38:24.001Z,60.29
2018-05-23T12:40:51.539Z,60.02
2018-05-23T12:43:19.687Z,59.72
2018-05-23T12:45:47.120Z,59.57
2018-05-23T12:48:15.332Z,60.71
2018-05-23T12:50:42.840Z,61.55
2018-05-23T12:53:10.241Z,60.69
2018-05-23T12:55:37.756Z,60.21
2018-05-23T12:58:05.196Z,60.42
2018-05-23T13:00:32.944Z,60.52
2018-05-23T13:03:00.421Z,61.25
2018-05-23T13:05:28.807Z,61.52
2018-05-23T13:07:56.260Z,61.57
2018-05-23T13:10:26.598Z,62.41
2018-05-23T13:12:54.067Z,63.88
2018-05-23T13:15:21.524Z,65.48
2018-05-23T13:17:49.097Z,67.10
2018-05-23T13:20:16.551Z,68.30
2018-05-23T13:22:43.953Z,69.17
2018-05-23T13:25:11.408Z,68.81
2018-05-23T13:27:39.552Z,68.22
2018-05-23T13:30:07.000Z,68.98
2018-05-23T13:32:34.418Z,69.76
2018-05-23T13:35:01.874Z,69.33
2018-05-23T13:37:29.341Z,69.07
2018-05-23T13:39:56.774Z,69.45
2018-05-23T13:42:24.283Z,67.73
2018-05-23T13:44:52.840Z,67.37
2018-05-23T13:47:20.417Z,67.38
2018-05-23T13:49:47.815Z,66.80
2018-05-23T13:52:15.756Z,66.44
2018-05-23T13:54:43.241Z,65.60
2018-05-23T13:57:10.798Z,65.12
2018-05-23T13:59:38.206Z,64.22
2018-05-23T14:02:05.662Z,63.01
2018-05-23T14:04:33.140Z,61.26
2018-05-23T14:07:00.637Z,59.45
2018-05-23T14:09:28.192Z,58.87
2018-05-23T14:11:55.721Z,59.67
2018-05-23T14:14:23.156Z,59.63
2018-05-23T14:16:50.659Z,59.81
2018-05-23T14:19:18.171Z,59.83
2018-05-23T14:21:45.667Z,60.82
2018-05-23T14:24:13.131Z,61.45
2018-05-23T14:26:40.575Z,61.90
2018-05-23T14:29:08.012Z,61.09
2018-05-23T14:31:35.449Z,61.47
2018-05-23T14:34:02.936Z,61.50
2018-05-23T14:36:30.897Z,61.65
2018-05-23T14:38:58.537Z,61.04
2018-05-23T14:41:25.974Z,61.39
2018-05-23T14:43:53.869Z,59.76
2018-05-23T14:46:21.969Z,59.38
2018-05-23T14:48:50.785Z,59.82
2018-05-23T14:51:18.214Z,59.16
2018-05-23T14:53:45.653Z,59.06
2018-05-23T14:56:13.178Z,59.19
2018-05-23T14:58:40.548Z,60.25
2018-05-23T15:01:08.054Z,61.55
2018-05-23T15:03:35.673Z,60.93
2018-05-23T15:06:03.158Z,61.58
2018-05-23T15:08:30.689Z,61.71
2018-05-23T15:10:58.039Z,62.04
2018-05-23T15:13:25.482Z,61.16
2018-05-23T15:15:52.924Z,61.21
2018-05-23T15:18:20.335Z,62.72
2018-05-23T15:20:47.818Z,62.81
2018-05-23T15:23:15.220Z,60.78
2018-05-23T15:25:42.698Z,61.35
2018-05-23T15:28:10.179Z,60.15
2018-05-23T15:30:37.612Z,59.69
2018-05-23T15:33:05.143Z,59.71
2018-05-23T15:35:32.674Z,60.21
2018-05-23T15:38:00.109Z,59.74
2018-05-23T15:40:27.589Z,59.39
2018-05-23T15:42:55.004Z,59.50
2018-05-23T15:45:22.421Z,59.20
2018-05-23T15:47:49.866Z,58.68
2018-05-23T15:50:17.361Z,58.41
2018-05-23T15:52:45.025Z,58.34
2018-05-23T15:55:12.453Z,58.41
2018-05-23T15:57:39.934Z,58.53
2018-05-23T16:00:07.386Z,58.44
2018-05-23T16:02:34.861Z,59.03
2018-05-23T16:05:03.251Z,58.63
2018-05-23T16:07:30.717Z,57.46
2018-05-23T16:09:58.213Z,57.15
2018-05-23T16:12:25.816Z,57.84
2018-05-23T16:14:53.413Z,57.25
2018-05-23T16:17:20.849Z,57.88
2018-05-23T16:19:48.708Z,58.58
2018-05-23T16:22:16.168Z,59.72
2018-05-23T16:24:47.377Z,59.40
2018-05-23T16:27:14.820Z,59.45
2018-05-23T16:29:42.280Z,59.54
2018-05-23T16:32:09.753Z,59.64
2018-05-23T16:34:37.253Z,60.11
2018-05-23T16:37:05.483Z,58.78
2018-05-23T16:39:33.007Z,58.15
2018-05-23T16:42:00.462Z,58.89
2018-05-23T16:44:27.897Z,58.99
2018-05-23T16:46:55.360Z,58.45
2018-05-23T16:49:22.835Z,59.07
2018-05-23T16:51:50.291Z,59.17
2018-05-23T16:54:17.747Z,59.33
2018-05-23T16:56:45.273Z,59.26
2018-05-23T16:59:12.721Z,59.25
2018-05-23T17:01:40.119Z,58.90
2018-05-23T17:04:07.613Z,58.43
2018-05-23T17:06:35.044Z,58.70
2018-05-23T17:09:02.483Z,57.82
2018-05-23T17:11:29.935Z,57.98
2018-05-23T17:13:57.442Z,57.54
2018-05-23T17:16:24.855Z,58.41
2018-05-23T17:18:52.361Z,58.52
2018-05-23T17:21:19.733Z,59.07
2018-05-23T17:23:47.209Z,59.49
2018-05-23T17:26:16.571Z,59.83
2018-05-23T17:28:44.033Z,59.99
2018-05-23T17:31:13.071Z,60.37
2018-05-23T17:33:41.415Z,60.78
2018-05-23T17:36:08.873Z,61.10
2018-05-23T17:38:36.345Z,61.20
2018-05-23T17:41:03.830Z,61.16
2018-05-23T17:43:31.285Z,60.99
2018-05-23T17:45:58.768Z,61.99
2018-05-23T17:48:26.238Z,62.30
2018-05-23T17:50:53.694Z,62.77
2018-05-23T17:53:21.196Z,63.02
2018-05-23T17:55:49.411Z,62.52
2018-05-23T17:58:16.963Z,62.36
2018-05-23T18:00:44.402Z,62.97
2018-05-23T18:03:11.943Z,63.03
2018-05-23T18:05:39.472Z,63.28
2018-05-23T18:08:06.931Z,63.39
2018-05-23T18:10:34.383Z,63.17
2018-05-23T18:13:02.739Z,63.06
2018-05-23T18:15:30.150Z,63.70
2018-05-23T18:17:57.593Z,64.38
2018-05-23T18:20:25.343Z,64.62
2018-05-23T18:22:52.679Z,64.65
2018-05-23T18:25:20.177Z,64.76
2018-05-23T18:27:47.636Z,64.75
2018-05-23T18:30:15.073Z,65.06
2018-05-23T18:32:42.506Z,65.48
2018-05-23T18:35:10.037Z,65.67
2018-05-23T18:37:37.486Z,65.98
2018-05-23T18:40:04.972Z,65.97
2018-05-23T18:42:32.388Z,66.18
2018-05-23T18:45:00.628Z,66.16
2018-05-23T18:47:28.500Z,66.25
2018-05-23T18:49:55.921Z,66.39
2018-05-23T18:52:23.389Z,66.63
2018-05-23T18:54:52.693Z,66.47
2018-05-23T18:57:20.849Z,66.57
2018-05-23T18:59:48.290Z,66.86
2018-05-23T19:02:15.704Z,66.93
2018-05-23T19:04:43.257Z,67.08
2018-05-23T19:07:10.700Z,67.42
2018-05-23T19:09:38.140Z,67.69
2018-05-23T19:12:05.623Z,67.98
2018-05-23T19:14:33.135Z,68.00
2018-05-23T19:17:00.596Z,68.28
2018-05-23T19:19:28.108Z,68.35
2018-05-23T19:21:55.601Z,68.56
2018-05-23T19:24:23.112Z,68.51
2018-05-23T19:29:25.812Z,68.85
2018-05-23T19:31:53.303Z,68.65
2018-05-23T19:34:20.796Z,68.49
2018-05-23T19:36:48.309Z,68.27
2018-05-23T19:39:15.744Z,68.15
2018-05-23T19:41:43.176Z,68.25
2018-05-23T19:44:10.607Z,68.45
2018-05-23T19:46:38.090Z,68.89
2018-05-23T19:49:05.575Z,69.47
2018-05-23T19:51:33.086Z,69.66
2018-05-23T19:54:00.535Z,69.94
2018-05-23T19:56:28.183Z,69.91
2018-05-23T19:58:55.590Z,69.96
2018-05-23T20:01:24.271Z,70.45
2018-05-23T20:03:51.660Z,70.68
2018-05-23T20:06:23.522Z,70.64
2018-05-23T20:08:51.004Z,70.69
2018-05-23T20:11:18.978Z,70.82
2018-05-23T20:13:46.814Z,71.24
2018-05-23T20:16:14.261Z,71.43
2018-05-23T20:18:41.745Z,71.54
2018-05-23T20:21:09.224Z,71.57
2018-05-23T20:23:36.711Z,71.82
2018-05-23T20:26:04.165Z,72.05
2018-05-23T20:28:32.101Z,72.56
2018-05-23T20:30:59.554Z,73.01
2018-05-23T20:33:26.954Z,73.21
2018-05-23T20:35:55.405Z,73.25
2018-05-23T20:38:22.818Z,73.26
2018-05-23T20:40:50.312Z,73.26
2018-05-23T20:43:17.801Z,73.49
2018-05-23T20:45:45.274Z,73.71
2018-05-23T20:48:12.849Z,73.49
2018-05-23T20:50:40.293Z,73.48
2018-05-23T20:53:07.880Z,73.35
2018-05-23T20:58:02.326Z,73.39
2018-05-23T21:00:29.721Z,73.61
2018-05-23T21:02:57.321Z,73.84
2018-05-23T21:05:24.879Z,73.77
2018-05-23T21:07:52.225Z,73.93
2018-05-23T21:10:19.702Z,74.02
2018-05-23T21:12:48.221Z,74.27
2018-05-23T21:15:15.697Z,74.44
2018-05-23T21:17:43.164Z,74.34
2018-05-23T21:20:10.652Z,74.37
2018-05-23T21:22:38.118Z,74.42
2018-05-23T21:25:05.564Z,74.39
2018-05-23T21:27:32.975Z,74.22
2018-05-23T21:30:00.418Z,74.73
2018-05-23T21:32:27.868Z,74.92
2018-05-23T21:34:56.410Z,75.08
2018-05-23T21:37:23.848Z,75.18
2018-05-23T21:39:51.285Z,75.16
2018-05-23T21:42:18.707Z,75.11
2018-05-23T21:44:46.123Z,75.16
2018-05-23T21:47:13.623Z,75.19
2018-05-23T21:49:43.886Z,75.17
2018-05-23T21:52:11.303Z,75.14
2018-05-23T21:54:38.992Z,75.15
2018-05-23T21:57:06.464Z,75.20
2018-05-23T21:59:33.874Z,75.33
2018-05-23T22:02:01.436Z,75.46
2018-05-23T22:04:28.993Z,75.55
2018-05-23T22:06:56.403Z,75.66
2018-05-23T22:09:23.863Z,75.88
2018-05-23T22:11:51.340Z,76.05
2018-05-23T22:14:18.779Z,76.16
2018-05-23T22:16:46.232Z,76.31
2018-05-23T22:19:13.657Z,76.66
2018-05-23T22:21:41.896Z,76.98
2018-05-23T22:24:09.317Z,77.22
2018-05-23T22:26:36.761Z,76.99
2018-05-23T22:29:04.202Z,76.83
2018-05-23T22:31:31.708Z,76.70
2018-05-23T22:33:59.183Z,76.88
2018-05-23T22:36:27.428Z,77.00
2018-05-23T22:38:54.938Z,77.18
2018-05-23T22:41:22.385Z,77.19
2018-05-23T22:43:49.882Z,76.88
2018-05-23T22:46:17.354Z,76.66
2018-05-23T22:48:44.783Z,76.45
2018-05-23T22:51:12.214Z,76.54
2018-05-23T22:53:39.680Z,76.65
2018-05-23T22:56:07.176Z,76.54
2018-05-23T22:58:34.589Z,76.34
2018-05-23T23:01:02.059Z,76.34
2018-05-23T23:03:29.684Z,76.21
2018-05-23T23:05:57.080Z,76.28
2018-05-23T23:08:24.543Z,76.24
2018-05-23T23:10:51.987Z,75.98
2018-05-23T23:13:19.448Z,75.86
2018-05-23T23:15:46.914Z,75.96
2018-05-23T23:18:14.373Z,76.37
2018-05-23T23:20:41.855Z,76.70
2018-05-23T23:23:10.060Z,76.61
2018-05-23T23:25:37.502Z,76.67
2018-05-23T23:28:04.964Z,77.02
2018-05-23T23:30:32.397Z,77.50
2018-05-23T23:32:59.806Z,77.89
2018-05-23T23:35:27.279Z,78.35
2018-05-23T23:37:54.721Z,78.44
2018-05-23T23:40:22.324Z,78.26
2018-05-23T23:42:49.784Z,77.84
2018-05-23T23:45:17.213Z,77.76
2018-05-23T23:47:44.682Z,77.90
2018-05-23T23:50:12.111Z,77.93
2018-05-23T23:52:39.549Z,77.68
2018-05-23T23:55:07.000Z,77.13
2018-05-23T23:57:34.419Z,76.99
